Weather at Jack Barstow Airport

Public forecast

Using degrees Fahrenheit for public forecast. Weather courtesy of forecast.io.

Current aviation weather report (METAR) for Jack Barstow Airport

Retrieved 2020/09/25 08:35 UTC (9 minutes ago):

KIKW 250835Z AUTO 00000KT 1/4SM FG OVC002 15/15 A2999 RMK AO2 T01480148

Closest aviation forecast (TAF) to Jack Barstow Airport

Closest forecast is MBS International Airport, 11.0 nm (20.4 km) SE. Retrieved 2020/09/25 06:22 UTC (2 hours ago):

TAF KMBS 250520Z 2506/2606 21005KT P6SM BKN060 TEMPO 2506/2509 1/2SM FG VV003 FM250900 VRB03KT 5SM HZ SCT200 FM251300 21005KT P6SM SCT200 FM251900 20008KT P6SM SKC